createdAt,value
2019-04-11T00:01:36.768Z,101662.48
2019-04-11T00:04:02.001Z,101672.42
2019-04-11T00:06:33.817Z,101673.73
2019-04-11T00:09:08.829Z,101676.88
2019-04-11T00:11:40.118Z,101682.39
2019-04-11T00:14:13.733Z,101680.49
2019-04-11T00:16:45.637Z,101677.77
2019-04-11T00:19:16.882Z,101681.69
2019-04-11T00:21:48.893Z,101685.02
2019-04-11T00:24:20.774Z,101680.66
2019-04-11T00:26:53.074Z,101689.21
2019-04-11T00:29:24.258Z,101691.19
2019-04-11T00:31:55.443Z,101693.03
2019-04-11T00:34:26.890Z,101700.99
2019-04-11T00:36:58.895Z,101696.53
2019-04-11T00:39:30.155Z,101701.94
2019-04-11T00:42:02.020Z,101706.03
2019-04-11T00:44:33.232Z,101702.09
2019-04-11T00:47:04.791Z,101704.60
2019-04-11T00:49:36.649Z,101699.76
2019-04-11T00:52:08.948Z,101701.08
2019-04-11T00:54:40.739Z,101705.40
2019-04-11T00:57:12.784Z,101705.17
2019-04-11T00:59:44.693Z,101707.95
2019-04-11T01:02:16.075Z,101703.91
2019-04-11T01:04:47.286Z,101700.38
2019-04-11T01:07:18.583Z,101703.49
2019-04-11T01:09:50.698Z,101703.10
2019-04-11T01:12:22.848Z,101702.50
2019-04-11T01:14:55.290Z,101699.73
2019-04-11T01:17:27.473Z,101712.70
2019-04-11T01:19:59.414Z,101713.89
2019-04-11T01:22:30.604Z,101715.20
2019-04-11T01:25:02.151Z,101723.05
2019-04-11T01:27:34.150Z,101708.94
2019-04-11T01:30:08.706Z,101711.44
2019-04-11T01:32:40.284Z,101708.02
2019-04-11T01:35:11.532Z,101716.02
2019-04-11T01:37:43.931Z,101714.01
2019-04-11T01:40:15.804Z,101718.86
2019-04-11T01:42:47.167Z,101716.73
2019-04-11T01:45:21.140Z,101719.89
2019-04-11T01:48:07.037Z,101715.85
2019-04-11T01:50:38.411Z,101724.86
2019-04-11T01:53:10.914Z,101723.09
2019-04-11T01:55:42.902Z,101719.06
2019-04-11T01:58:14.301Z,101727.57
2019-04-11T02:00:54.751Z,101721.19
2019-04-11T02:03:39.429Z,101724.46
2019-04-11T02:06:11.763Z,101730.27
2019-04-11T02:08:43.865Z,101729.50
2019-04-11T02:11:15.433Z,101736.81
2019-04-11T02:13:46.639Z,101730.28
2019-04-11T02:16:18.919Z,101737.63
2019-04-11T02:18:50.192Z,101740.52
2019-04-11T02:21:21.973Z,101739.63
2019-04-11T02:24:30.188Z,101734.44
2019-04-11T02:27:06.498Z,101743.20
2019-04-11T02:29:38.785Z,101740.75
2019-04-11T02:32:12.189Z,101747.67
2019-04-11T02:34:43.883Z,101745.59
2019-04-11T02:37:15.330Z,101755.66
2019-04-11T02:39:47.263Z,101752.24
2019-04-11T02:42:19.117Z,101761.89
2019-04-11T02:45:03.085Z,101757.47
2019-04-11T02:47:27.569Z,101762.97
2019-04-11T02:49:57.340Z,101762.05
2019-04-11T02:52:29.312Z,101759.31
2019-04-11T02:55:00.851Z,101759.20
2019-04-11T02:57:32.319Z,101755.55
2019-04-11T03:00:04.444Z,101761.04
2019-04-11T03:02:39.245Z,101759.34
2019-04-11T03:05:12.006Z,101758.42
2019-04-11T03:07:43.162Z,101756.08
2019-04-11T03:10:14.470Z,101760.00
2019-04-11T03:12:47.552Z,101770.45
2019-04-11T03:15:31.757Z,101767.45
2019-04-11T03:17:58.970Z,101763.42
2019-04-11T03:20:32.521Z,101765.80
2019-04-11T03:23:04.073Z,101770.48
2019-04-11T03:25:33.037Z,101772.98
2019-04-11T03:28:05.496Z,101776.78
2019-04-11T03:30:56.859Z,101775.51
2019-04-11T03:34:01.865Z,101774.73
2019-04-11T03:38:37.649Z,101781.26
2019-04-11T03:41:04.290Z,101787.02
2019-04-11T03:43:34.525Z,101787.52
2019-04-11T03:46:15.916Z,101780.99
2019-04-11T03:48:40.088Z,101789.37
2019-04-11T03:51:01.844Z,101788.57
2019-04-11T03:53:34.864Z,101786.49
2019-04-11T03:56:07.624Z,101789.61
2019-04-11T03:58:39.768Z,101791.03
2019-04-11T04:01:11.849Z,101795.87
2019-04-11T04:03:44.689Z,101801.11
2019-04-11T04:06:16.968Z,101800.72
2019-04-11T04:08:48.773Z,101797.98
2019-04-11T04:11:27.164Z,101799.14
2019-04-11T04:14:17.177Z,101809.59
2019-04-11T04:17:14.849Z,101812.09
2019-04-11T04:19:59.631Z,101813.40
2019-04-11T04:22:54.697Z,101816.69
2019-04-11T04:25:28.403Z,101824.80
2019-04-11T04:27:59.679Z,101828.17
2019-04-11T04:30:31.158Z,101833.82
2019-04-11T04:33:02.902Z,101836.44
2019-04-11T04:35:36.380Z,101835.12
2019-04-11T04:38:09.375Z,101839.55
2019-04-11T04:40:54.135Z,101842.97
2019-04-11T04:43:14.615Z,101845.58
2019-04-11T04:46:06.593Z,101851.19
2019-04-11T04:48:22.327Z,101851.19
2019-04-11T04:50:54.166Z,101856.30
2019-04-11T04:53:26.596Z,101859.67
2019-04-11T04:55:57.685Z,101856.02
2019-04-11T04:58:29.336Z,101864.27
2019-04-11T05:01:01.394Z,101867.52
2019-04-11T05:03:34.297Z,101869.62
2019-04-11T05:06:05.923Z,101873.55
2019-04-11T05:08:40.870Z,101873.42
2019-04-11T05:11:13.822Z,101876.92
2019-04-11T05:13:49.251Z,101886.19
2019-04-11T05:16:18.234Z,101877.84
2019-04-11T05:18:50.259Z,101884.12
2019-04-11T05:21:21.687Z,101888.55
2019-04-11T05:23:52.837Z,101881.13
2019-04-11T05:26:24.059Z,101886.61
2019-04-11T05:28:57.185Z,101889.73
2019-04-11T05:31:28.440Z,101884.50
2019-04-11T05:33:59.653Z,101891.42
2019-04-11T05:36:30.864Z,101894.70
2019-04-11T05:39:02.345Z,101901.63
2019-04-11T05:41:34.999Z,101899.81
2019-04-11T05:44:10.464Z,101901.24
2019-04-11T05:46:49.290Z,101901.87
2019-04-11T05:49:21.063Z,101904.89
2019-04-11T05:51:58.650Z,101902.39
2019-04-11T05:54:33.318Z,101903.56
2019-04-11T05:57:05.418Z,101909.97
2019-04-11T05:59:37.637Z,101912.84
2019-04-11T06:02:21.646Z,101911.80
2019-04-11T06:05:00.521Z,101917.15
2019-04-11T06:07:42.164Z,101917.95
2019-04-11T06:10:17.812Z,101915.20
2019-04-11T06:13:10.148Z,101917.17
2019-04-11T06:15:44.355Z,101922.52
2019-04-11T06:18:37.352Z,101921.22
2019-04-11T06:21:19.976Z,101916.11
2019-04-11T06:24:12.049Z,101925.53
2019-04-11T06:26:49.147Z,101925.28
2019-04-11T06:29:26.781Z,101927.09
2019-04-11T06:32:16.100Z,101927.48
2019-04-11T06:35:01.905Z,101936.13
2019-04-11T06:37:50.583Z,101937.29
2019-04-11T06:40:32.671Z,101939.39
2019-04-11T06:43:25.755Z,101937.68
2019-04-11T06:46:16.656Z,101942.35
2019-04-11T06:48:57.945Z,101942.63
2019-04-11T06:51:37.813Z,101940.00
2019-04-11T06:54:25.208Z,101937.25
2019-04-11T06:56:57.280Z,101944.44
2019-04-11T06:59:32.887Z,101944.93
2019-04-11T07:02:16.435Z,101947.56
2019-04-11T07:04:49.610Z,101949.89
2019-04-11T07:07:21.657Z,101947.27
2019-04-11T07:10:01.941Z,101948.46
2019-04-11T07:12:55.215Z,101951.83
2019-04-11T07:15:44.262Z,101952.87
2019-04-11T07:18:44.212Z,101954.72
2019-04-11T07:21:15.423Z,101957.95
2019-04-11T07:24:05.362Z,101961.61
2019-04-11T07:26:50.047Z,101958.86
2019-04-11T07:29:46.506Z,101966.57
2019-04-11T07:32:23.354Z,101964.58
2019-04-11T07:35:12.984Z,101971.60
2019-04-11T07:37:47.406Z,101974.76
2019-04-11T07:40:39.357Z,101972.50
2019-04-11T07:43:29.686Z,101978.39
2019-04-11T07:46:27.226Z,101982.97
2019-04-11T07:49:03.771Z,101979.94
2019-04-11T07:51:42.914Z,101980.25
2019-04-11T07:54:15.925Z,101983.76
2019-04-11T07:57:06.209Z,101977.95
2019-04-11T07:59:56.346Z,101982.89
2019-04-11T08:02:53.209Z,101982.47
2019-04-11T08:05:56.607Z,101992.02
2019-04-11T08:09:05.120Z,101988.59
2019-04-11T08:11:54.042Z,101993.25
2019-04-11T08:14:44.863Z,102001.73
2019-04-11T08:17:28.186Z,102001.27
2019-04-11T08:20:25.523Z,101997.67
2019-04-11T08:22:59.606Z,101995.63
2019-04-11T08:25:53.636Z,101998.34
2019-04-11T08:28:26.612Z,101995.17
2019-04-11T08:31:26.542Z,102002.45
2019-04-11T08:34:04.805Z,101996.50
2019-04-11T08:36:55.470Z,101998.41
2019-04-11T08:39:31.347Z,102009.61
2019-04-11T08:42:40.780Z,102007.20
2019-04-11T08:45:19.677Z,102008.18
2019-04-11T08:47:54.528Z,102011.55
2019-04-11T08:50:28.909Z,102015.49
2019-04-11T08:53:19.079Z,102014.29
2019-04-11T08:56:01.853Z,102010.30
2019-04-11T08:59:03.410Z,102014.06
2019-04-11T09:01:34.593Z,102014.66
2019-04-11T09:04:27.593Z,102013.92
2019-04-11T09:06:58.961Z,102014.13
2019-04-11T09:09:47.924Z,102013.02
2019-04-11T09:12:19.079Z,102011.65
2019-04-11T09:15:19.140Z,102010.70
2019-04-11T09:18:04.294Z,102000.16
2019-04-11T09:20:49.128Z,101998.39
2019-04-11T09:23:23.818Z,101999.14
2019-04-11T09:26:32.169Z,101997.27
2019-04-11T09:29:04.426Z,101994.78
2019-04-11T09:31:55.884Z,102000.31
2019-04-11T09:34:41.905Z,102002.27
2019-04-11T09:37:29.721Z,101995.38
2019-04-11T09:40:23.842Z,101991.75
2019-04-11T09:43:28.303Z,101988.02
2019-04-11T09:46:18.485Z,101998.28
2019-04-11T09:49:15.034Z,101993.78
2019-04-11T09:52:06.036Z,101982.86
2019-04-11T09:54:57.022Z,101979.48
2019-04-11T09:57:44.166Z,101976.92
2019-04-11T10:00:41.064Z,101982.09
2019-04-11T10:03:19.810Z,101983.74
2019-04-11T10:06:19.471Z,101981.12
2019-04-11T10:08:57.627Z,101977.18
2019-04-11T10:11:48.513Z,101976.69
2019-04-11T10:14:21.627Z,101971.92
2019-04-11T10:17:10.772Z,101982.73
2019-04-11T10:19:46.933Z,101982.83
2019-04-11T10:22:49.414Z,101979.13
2019-04-11T10:25:30.223Z,101979.70
2019-04-11T10:28:30.384Z,101982.34
2019-04-11T10:31:12.621Z,101982.63
2019-04-11T10:34:06.107Z,101985.16
2019-04-11T10:36:55.874Z,101983.64
2019-04-11T10:39:55.089Z,101984.52
2019-04-11T10:42:26.846Z,101988.55
2019-04-11T10:45:15.329Z,101982.12
2019-04-11T10:47:47.546Z,101984.30
2019-04-11T10:50:26.045Z,101978.73
2019-04-11T10:53:00.640Z,101981.75
2019-04-11T10:56:00.077Z,101986.23
2019-04-11T10:58:57.316Z,101981.36
2019-04-11T11:01:46.469Z,101982.39
2019-04-11T11:04:20.141Z,101982.98
2019-04-11T11:06:54.357Z,101979.33
2019-04-11T11:09:32.398Z,101973.19
2019-04-11T11:12:29.644Z,101978.53
2019-04-11T11:15:11.900Z,101981.55
2019-04-11T11:20:58.803Z,101983.83
2019-04-11T11:23:59.206Z,101985.86
2019-04-11T11:26:33.885Z,101984.55
2019-04-11T11:29:30.121Z,101985.05
2019-04-11T11:32:05.143Z,101987.28
2019-04-11T11:34:44.576Z,101993.13
2019-04-11T11:37:42.250Z,101987.48
2019-04-11T11:40:32.010Z,101988.80
2019-04-11T11:43:17.027Z,101989.52
2019-04-11T11:46:04.035Z,101989.37
2019-04-11T11:48:37.515Z,101994.63
2019-04-11T11:51:39.756Z,101996.66
2019-04-11T11:54:14.026Z,101996.87
2019-04-11T11:56:47.270Z,101992.92
2019-04-11T11:59:36.553Z,101990.30
2019-04-11T12:02:15.681Z,101996.09
2019-04-11T12:05:10.481Z,101990.01
2019-04-11T12:08:04.269Z,101995.08
2019-04-11T12:10:41.650Z,101996.00
2019-04-11T12:13:45.306Z,101994.11
2019-04-11T12:16:36.866Z,102004.55
2019-04-11T12:19:45.759Z,102001.39
2019-04-11T12:22:06.271Z,102002.66
2019-04-11T12:24:59.174Z,102003.30
2019-04-11T12:27:48.009Z,102002.11
2019-04-11T12:30:33.884Z,101998.70
2019-04-11T12:33:21.924Z,102000.56
2019-04-11T12:36:10.542Z,102000.17
2019-04-11T12:38:59.178Z,102000.91
2019-04-11T12:41:53.266Z,102000.91
2019-04-11T12:44:49.419Z,101998.48
2019-04-11T12:47:49.226Z,101998.70
2019-04-11T12:50:39.383Z,101999.50
2019-04-11T12:53:12.347Z,101997.45
2019-04-11T12:56:05.554Z,101997.59
2019-04-11T12:58:42.415Z,101998.57
2019-04-11T13:01:31.820Z,101996.67
2019-04-11T13:04:20.695Z,101993.84
2019-04-11T13:07:09.681Z,101995.16
2019-04-11T13:09:59.766Z,101991.60
2019-04-11T13:12:48.641Z,101992.13
2019-04-11T13:15:33.128Z,101992.72
2019-04-11T13:18:32.223Z,101986.77
2019-04-11T13:21:22.371Z,101982.00
2019-04-11T13:24:12.500Z,101995.98
2019-04-11T13:27:01.143Z,101995.98
2019-04-11T13:29:57.311Z,101998.18
2019-04-11T13:32:33.688Z,101999.88
2019-04-11T13:35:27.100Z,102000.22
2019-04-11T13:38:26.336Z,101996.06
2019-04-11T13:41:14.481Z,101997.95
2019-04-11T13:44:00.771Z,101994.88
2019-04-11T13:46:50.907Z,101997.31
2019-04-11T13:49:53.051Z,101993.86
2019-04-11T13:52:38.034Z,101993.66
2019-04-11T13:55:34.455Z,101983.91
2019-04-11T13:58:23.387Z,101986.92
2019-04-11T14:00:55.732Z,101983.22
2019-04-11T14:03:46.690Z,101982.22
2019-04-11T14:06:23.860Z,101974.67
2019-04-11T14:09:19.929Z,101983.05
2019-04-11T14:11:58.318Z,101982.77
2019-04-11T14:15:06.018Z,101976.48
2019-04-11T14:18:05.091Z,101980.91
2019-04-11T14:20:43.924Z,101977.91
2019-04-11T14:23:34.209Z,101977.31
2019-04-11T14:26:23.458Z,101982.76
2019-04-11T14:29:19.502Z,101981.63
2019-04-11T14:32:00.064Z,101987.17
2019-04-11T14:34:48.932Z,101983.81
2019-04-11T14:37:39.073Z,101985.52
2019-04-11T14:40:21.029Z,101984.88
2019-04-11T14:43:18.354Z,101981.86
2019-04-11T14:46:08.563Z,101982.89
2019-04-11T14:48:44.732Z,101983.28
2019-04-11T14:51:27.151Z,101982.25
2019-04-11T14:54:07.707Z,101976.00
2019-04-11T14:56:43.006Z,101985.48
2019-04-11T14:59:29.559Z,101977.79
2019-04-11T15:02:08.036Z,101989.47
2019-04-11T15:04:56.708Z,101988.63
2019-04-11T15:07:28.800Z,101985.79
2019-04-11T15:10:28.306Z,101988.59
2019-04-11T15:12:59.718Z,101992.61
2019-04-11T15:15:50.005Z,101987.43
2019-04-11T15:18:22.315Z,101988.21
2019-04-11T15:21:08.059Z,101991.12
2019-04-11T15:23:42.038Z,101988.78
2019-04-11T15:26:30.833Z,101989.77
2019-04-11T15:29:08.621Z,101996.09
2019-04-11T15:32:01.901Z,101996.41
2019-04-11T15:34:48.875Z,101997.83
2019-04-11T15:37:38.984Z,101996.09
2019-04-11T15:40:29.189Z,101999.81
2019-04-11T15:43:18.102Z,101995.23
2019-04-11T15:45:53.479Z,101991.37
2019-04-11T15:49:02.209Z,101993.10
2019-04-11T15:51:37.469Z,101995.13
2019-04-11T15:54:17.886Z,102000.66
2019-04-11T15:56:54.644Z,102005.48
2019-04-11T15:59:56.656Z,101998.80
2019-04-11T16:02:52.891Z,102001.04
2019-04-11T16:05:49.081Z,101993.90
2019-04-11T16:08:43.320Z,101989.81
2019-04-11T16:11:34.317Z,101995.09
2019-04-11T16:14:19.539Z,101991.85
2019-04-11T16:17:13.766Z,101994.37
2019-04-11T16:20:06.508Z,101994.86
2019-04-11T16:23:11.714Z,101993.45
2019-04-11T16:25:53.561Z,101989.23
2019-04-11T16:28:46.697Z,101996.56
2019-04-11T16:31:17.853Z,101997.10
2019-04-11T16:34:11.083Z,102000.92
2019-04-11T16:36:53.878Z,101997.13
2019-04-11T16:39:52.081Z,101994.45
2019-04-11T16:42:29.327Z,101993.52
2019-04-11T16:45:24.742Z,102004.19
2019-04-11T16:48:03.132Z,102005.39
2019-04-11T16:50:34.327Z,102010.59
2019-04-11T16:53:10.566Z,102010.42
2019-04-11T16:55:41.940Z,102015.23
2019-04-11T16:58:15.220Z,102016.05
2019-04-11T17:00:45.599Z,102019.92
2019-04-11T17:03:17.388Z,102026.21
2019-04-11T17:06:13.633Z,102026.30
2019-04-11T17:08:56.100Z,102033.51
2019-04-11T17:11:27.119Z,102033.55
2019-04-11T17:13:58.495Z,102036.05
2019-04-11T17:16:30.737Z,102029.92
2019-04-11T17:19:05.043Z,102031.39
2019-04-11T17:21:43.135Z,102036.52
2019-04-11T17:24:08.149Z,102036.25
2019-04-11T17:26:39.356Z,102035.48
2019-04-11T17:29:10.553Z,102042.72
2019-04-11T17:31:41.723Z,102036.47
2019-04-11T17:34:12.858Z,102043.56
2019-04-11T17:36:44.083Z,102042.78
2019-04-11T17:39:15.328Z,102055.52
2019-04-11T17:41:46.659Z,102050.55
2019-04-11T17:44:17.896Z,102052.37
2019-04-11T17:46:49.177Z,102058.65
2019-04-11T17:49:20.331Z,102063.38
2019-04-11T17:51:56.178Z,102067.70
2019-04-11T17:54:24.898Z,102069.66
2019-04-11T17:56:59.034Z,102070.08
2019-04-11T17:59:29.721Z,102076.47
2019-04-11T18:02:00.869Z,102086.82
2019-04-11T18:04:33.081Z,102080.96
2019-04-11T18:07:04.375Z,102087.77
2019-04-11T18:09:35.565Z,102093.53
2019-04-11T18:12:06.841Z,102088.56
2019-04-11T18:14:39.271Z,102095.38
2019-04-11T18:17:10.552Z,102088.17
2019-04-11T18:19:41.858Z,102095.64
2019-04-11T18:22:14.230Z,102101.41
2019-04-11T18:24:49.909Z,102099.18
2019-04-11T18:27:21.539Z,102100.11
2019-04-11T18:29:53.008Z,102103.61
2019-04-11T18:32:24.670Z,102100.34
2019-04-11T18:34:55.911Z,102105.58
2019-04-11T18:37:29.757Z,102116.56
2019-04-11T18:40:01.119Z,102112.52
2019-04-11T18:42:32.420Z,102121.17
2019-04-11T18:45:03.709Z,102113.04
2019-04-11T18:47:34.889Z,102118.44
2019-04-11T18:50:07.854Z,102117.63
2019-04-11T18:52:39.188Z,102117.63
2019-04-11T18:55:10.357Z,102125.22
2019-04-11T18:57:41.618Z,102126.53
2019-04-11T19:00:15.550Z,102123.66
2019-04-11T19:02:47.022Z,102128.48
2019-04-11T19:05:28.192Z,102127.86
2019-04-11T19:07:51.377Z,102129.94
2019-04-11T19:10:23.762Z,102125.50
2019-04-11T19:12:56.325Z,102126.15
2019-04-11T19:15:27.577Z,102130.05
2019-04-11T19:18:06.242Z,102131.89
2019-04-11T19:20:31.930Z,102136.08
2019-04-11T19:23:03.280Z,102131.91
2019-04-11T19:25:34.517Z,102126.69
2019-04-11T19:28:05.694Z,102129.69
2019-04-11T19:30:37.662Z,102129.95
2019-04-11T19:33:10.117Z,102130.59
2019-04-11T19:35:42.299Z,102130.98
2019-04-11T19:38:28.631Z,102129.30
2019-04-11T19:41:00.772Z,102125.75
2019-04-11T19:43:32.795Z,102133.76
2019-04-11T19:46:05.336Z,102126.94
2019-04-11T19:48:37.503Z,102135.72
2019-04-11T19:51:10.925Z,102133.87
2019-04-11T19:53:41.893Z,102130.20
2019-04-11T19:56:21.044Z,102135.73
2019-04-11T19:58:52.377Z,102134.27
2019-04-11T20:01:23.654Z,102137.30
2019-04-11T20:03:54.932Z,102133.62
2019-04-11T20:06:26.495Z,102132.96
2019-04-11T20:08:57.867Z,102137.69
2019-04-11T20:11:30.020Z,102141.74
2019-04-11T20:14:02.823Z,102134.53
2019-04-11T20:16:41.356Z,102137.15
2019-04-11T20:19:07.338Z,102133.87
2019-04-11T20:21:39.056Z,102132.17
2019-04-11T20:24:14.094Z,102135.84
2019-04-11T20:26:43.488Z,102138.84
2019-04-11T20:29:14.766Z,102139.77
2019-04-11T20:31:45.919Z,102140.27
2019-04-11T20:34:26.783Z,102145.66
2019-04-11T20:36:50.062Z,102141.33
2019-04-11T20:39:21.252Z,102139.13
2019-04-11T20:41:53.497Z,102143.05
2019-04-11T20:44:27.428Z,102145.80
2019-04-11T20:47:00.458Z,102140.02
2019-04-11T20:49:32.946Z,102139.09
2019-04-11T20:52:04.200Z,102139.36
2019-04-11T20:54:38.452Z,102146.02
2019-04-11T20:57:11.870Z,102141.44
2019-04-11T20:59:42.623Z,102146.41
2019-04-11T21:02:14.093Z,102147.17
2019-04-11T21:04:45.423Z,102140.89
2019-04-11T21:07:16.671Z,102144.05
2019-04-11T21:09:47.828Z,102141.81
2019-04-11T21:12:19.043Z,102141.52
2019-04-11T21:14:50.275Z,102138.91
2019-04-11T21:17:21.651Z,102135.92
2019-04-11T21:19:53.244Z,102135.66
2019-04-11T21:22:24.992Z,102141.14
2019-04-11T21:24:56.320Z,102141.27
2019-04-11T21:27:28.916Z,102132.92
2019-04-11T21:30:00.840Z,102140.89
2019-04-11T21:32:32.679Z,102144.30
2019-04-11T21:35:04.651Z,102141.69
2019-04-11T21:37:36.829Z,102146.50
2019-04-11T21:40:08.168Z,102141.53
2019-04-11T21:42:39.355Z,102141.53
2019-04-11T21:45:12.064Z,102146.00
2019-04-11T21:47:43.290Z,102146.62
2019-04-11T21:50:14.814Z,102141.52
2019-04-11T21:52:46.113Z,102141.27
2019-04-11T21:55:17.349Z,102138.91
2019-04-11T21:57:49.531Z,102140.59
2019-04-11T22:00:28.364Z,102140.84
2019-04-11T22:03:01.497Z,102143.34
2019-04-11T22:05:33.757Z,102142.28
2019-04-11T22:08:05.054Z,102138.23
2019-04-11T22:10:40.054Z,102138.73
2019-04-11T22:13:10.110Z,102140.84
2019-04-11T22:15:43.067Z,102138.48
2019-04-11T22:18:16.708Z,102143.95
2019-04-11T22:20:47.233Z,102140.83
2019-04-11T22:23:19.359Z,102137.30
2019-04-11T22:25:53.058Z,102142.90
2019-04-11T22:28:25.474Z,102140.53
2019-04-11T22:30:58.837Z,102137.66
2019-04-11T22:33:38.049Z,102140.14
2019-04-11T22:36:09.237Z,102140.02
2019-04-11T22:38:40.402Z,102144.83
2019-04-11T22:41:11.602Z,102149.67
2019-04-11T22:43:42.908Z,102149.66
2019-04-11T22:46:20.611Z,102151.71
2019-04-11T22:48:47.165Z,102151.83
2019-04-11T22:51:18.371Z,102150.39
2019-04-11T22:53:59.902Z,102152.63
2019-04-11T22:56:23.569Z,102150.15
2019-04-11T22:58:54.808Z,102155.50
2019-04-11T23:01:26.022Z,102153.64
2019-04-11T23:04:01.395Z,102155.75
2019-04-11T23:06:32.559Z,102158.61
2019-04-11T23:09:05.201Z,102158.22
2019-04-11T23:11:38.087Z,102156.11
2019-04-11T23:14:09.387Z,102159.90
2019-04-11T23:16:41.882Z,102156.09
2019-04-11T23:19:14.397Z,102162.33
2019-04-11T23:21:45.738Z,102158.83
2019-04-11T23:24:17.017Z,102165.22
2019-04-11T23:26:48.201Z,102160.00
2019-04-11T23:29:19.384Z,102164.16
2019-04-11T23:31:51.255Z,102159.59
2019-04-11T23:34:22.761Z,102157.90
2019-04-11T23:36:53.995Z,102161.81
2019-04-11T23:39:25.173Z,102165.48
2019-04-11T23:41:56.365Z,102160.27
2019-04-11T23:44:27.580Z,102160.76
2019-04-11T23:46:58.870Z,102171.83
2019-04-11T23:49:30.113Z,102166.47
2019-04-11T23:52:01.364Z,102167.52
2019-04-11T23:54:32.556Z,102167.77
2019-04-11T23:57:03.790Z,102170.50
2019-04-11T23:59:34.947Z,102163.35
